Time;durP1;ratioP1;P1;durP2;ratioP2;P2;SDS_P1;SDS_P2;PMS_P1;PMS_P2;Temp;Humidity;BMP_temperature;BMP_pressure;BME280_temperature;BME280_humidity;BME280_pressure;Samples;Min_cycle;Max_cycle;Signal;HPM_P1;HPM_P2
2021/12/16 00:01:46;;;;;;;81.50;27.13;;;;;;;9.31;66.83;103423.84;5121851;28;20424;-45
2021/12/16 00:07:23;;;;;;;78.22;27.23;;;;;;;9.27;66.96;103416.16;5124067;28;20523;-43
2021/12/16 00:10:01;;;;;;;75.72;26.55;;;;;;;9.26;66.95;103409.16;5120946;28;20973;-47
2021/12/16 00:32:43;;;;;;;70.18;25.98;;;;;;;9.14;67.12;103422.06;5117077;28;20436;-42
2021/12/16 00:35:19;;;;;;;88.47;28.00;;;;;;;9.15;67.20;103430.81;5123646;28;20784;-42
2021/12/16 00:37:51;;;;;;;77.20;25.63;;;;;;;9.13;67.25;103433.53;5124194;28;20452;-43
2021/12/16 00:40:25;;;;;;;75.00;27.65;;;;;;;8.93;67.15;103402.88;5126200;28;20607;-43
2021/12/16 00:43:05;;;;;;;82.13;28.80;;;;;;;9.12;67.08;103437.09;5120366;28;20428;-42
2021/12/16 00:45:43;;;;;;;88.07;28.23;;;;;;;9.10;67.13;103436.31;5124261;28;20450;-43
2021/12/16 00:48:24;;;;;;;75.63;27.30;;;;;;;9.10;67.33;103436.31;5123801;28;20439;-41
2021/12/16 00:56:38;;;;;;;78.63;27.27;;;;;;;9.08;67.38;103432.91;5122208;28;20889;-42
2021/12/16 00:59:12;;;;;;;75.28;26.73;;;;;;;9.05;67.30;103426.94;5123533;28;20900;-42
2021/12/16 01:01:53;;;;;;;73.75;25.40;;;;;;;9.04;67.46;103425.22;5122616;28;20419;-43
2021/12/16 01:04:59;;;;;;;80.03;27.07;;;;;;;9.00;67.43;103435.06;5121665;28;20448;-46
2021/12/16 01:08:09;;;;;;;75.22;26.30;;;;;;;8.99;67.32;103434.22;5121608;28;20424;-43
2021/12/16 01:34:00;;;;;;;49.25;20.63;;;;;;;8.74;67.60;103460.91;5121846;28;20432;-42
2021/12/16 01:42:27;;;;;;;61.45;24.38;;;;;;;8.60;67.59;103476.50;5079572;28;20431;-42
2021/12/16 01:47:58;;;;;;;73.95;25.13;;;;;;;8.57;67.72;103484.56;5083087;28;20419;-46
2021/12/16 01:50:34;;;;;;;69.97;25.05;;;;;;;8.57;67.75;103484.56;5079508;29;20506;-43
2021/12/16 01:53:23;;;;;;;67.45;25.05;;;;;;;8.56;67.83;103477.59;5081256;28;20911;-43
2021/12/16 01:56:02;;;;;;;57.33;22.88;;;;;;;8.56;67.83;103476.75;5080552;28;20515;-48
2021/12/16 01:58:35;;;;;;;64.55;22.58;;;;;;;8.21;67.69;103432.66;5080277;28;20528;-44
2021/12/16 02:01:15;;;;;;;55.53;20.83;;;;;;;8.48;67.70;103487.63;5083711;28;20427;-42
2021/12/16 02:03:54;;;;;;;55.53;22.88;;;;;;;8.45;67.65;103496.50;5082132;28;20551;-44
2021/12/16 02:06:45;;;;;;;73.35;26.38;;;;;;;8.36;67.83;103483.75;5081557;28;20433;-47
2021/12/16 02:09:26;;;;;;;78.28;26.35;;;;;;;8.43;67.81;103490.47;5080245;28;20522;-44
2021/12/16 02:12:07;;;;;;;59.60;23.08;;;;;;;8.43;67.75;103494.91;5080774;29;20423;-43
2021/12/16 02:29:09;;;;;;;48.03;19.88;;;;;;;8.20;68.09;103499.38;5084276;29;20419;-44
2021/12/16 02:31:53;;;;;;;63.65;23.88;;;;;;;8.18;68.04;103500.41;5079072;28;21711;-44
2021/12/16 02:34:41;;;;;;;66.97;23.63;;;;;;;8.11;67.76;103497.16;5078509;28;21087;-47
2021/12/16 02:37:18;;;;;;;72.50;24.97;;;;;;;8.16;68.00;103500.44;5015022;28;1973448;-45
2021/12/16 02:39:52;;;;;;;60.38;24.33;;;;;;;8.16;67.98;103510.13;5121983;28;20412;-44
2021/12/16 02:42:35;;;;;;;63.60;24.10;;;;;;;8.13;68.06;103500.59;5122231;28;21726;-44
2021/12/16 02:50:50;;;;;;;77.13;29.90;;;;;;;8.17;68.12;103510.03;5119666;28;20734;-44
2021/12/16 02:53:24;;;;;;;71.57;27.58;;;;;;;8.19;68.08;103510.84;5123052;28;20408;-44
2021/12/16 02:55:57;;;;;;;85.47;30.15;;;;;;;8.19;67.96;103505.56;5119379;28;20507;-43
2021/12/16 02:58:29;;;;;;;83.78;31.63;;;;;;;8.14;68.04;103497.00;5120063;28;20436;-42
2021/12/16 03:01:13;;;;;;;103.07;36.08;;;;;;;8.23;67.96;103503.66;5119508;28;20442;-43
2021/12/16 03:03:46;;;;;;;100.40;33.45;;;;;;;8.28;67.98;103510.44;5122884;28;20442;-42
2021/12/16 03:06:19;;;;;;;78.22;25.48;;;;;;;8.14;68.10;103480.38;5121623;28;20774;-44
2021/12/16 03:08:53;;;;;;;54.25;22.88;;;;;;;8.09;68.06;103485.88;5122443;28;20795;-42
2021/12/16 03:11:34;;;;;;;60.05;24.75;;;;;;;8.15;68.09;103498.75;5118319;28;20440;-46
2021/12/16 03:14:24;;;;;;;75.57;27.90;;;;;;;8.13;68.19;103505.84;5121310;28;20444;-45
2021/12/16 03:17:10;;;;;;;71.57;25.83;;;;;;;8.11;68.22;103504.19;5118479;28;20432;-44
2021/12/16 03:20:00;;;;;;;69.13;25.03;;;;;;;7.82;68.24;103465.09;5121379;28;20441;-48
2021/12/16 03:22:55;;;;;;;74.73;24.57;;;;;;;8.04;68.14;103509.72;5118225;28;20506;-44
2021/12/16 03:25:41;;;;;;;80.80;28.90;;;;;;;7.98;68.33;103502.13;5119294;28;20443;-43
2021/12/16 03:28:33;;;;;;;121.53;35.15;;;;;;;8.02;68.25;103508.97;5121381;28;20443;-46
2021/12/16 03:31:24;;;;;;;126.03;43.00;;;;;;;7.99;68.24;103492.44;5119151;28;20924;-43
2021/12/16 03:34:20;;;;;;;103.68;36.15;;;;;;;8.10;68.13;103505.97;5120791;28;20443;-44
2021/12/16 03:37:17;;;;;;;70.90;28.57;;;;;;;8.07;68.20;103514.88;5124438;28;20559;-43
2021/12/16 03:39:54;;;;;;;70.57;27.85;;;;;;;8.02;68.28;103510.72;5121118;28;20948;-43
2021/12/16 03:42:32;;;;;;;78.80;29.98;;;;;;;8.00;68.17;103507.31;5119387;28;20404;-44
2021/12/16 03:46:25;;;;;;;92.88;33.65;;;;;;;8.00;68.31;103504.69;5124619;28;20519;-42
2021/12/16 03:48:12;;;;;;;92.35;32.88;;;;;;;7.98;68.25;103506.53;5124347;28;20432;-43
2021/12/16 03:50:45;;;;;;;104.55;34.88;;;;;;;7.93;68.30;103487.44;5123253;28;20763;-41
2021/12/16 03:53:18;;;;;;;98.18;35.88;;;;;;;7.99;68.38;103502.97;5128004;28;20796;-47
2021/12/16 03:55:52;;;;;;;134.32;44.33;;;;;;;8.00;68.33;103512.59;5125653;28;20459;-45
2021/12/16 03:58:25;;;;;;;141.82;45.08;;;;;;;8.04;68.30;103516.78;5124179;28;20955;-43
2021/12/16 04:01:04;;;;;;;141.55;44.55;;;;;;;8.07;68.30;103514.00;5122089;28;20959;-43
2021/12/16 04:03:37;;;;;;;126.85;40.67;;;;;;;8.10;68.23;103516.50;5125481;28;20434;-43
2021/12/16 04:06:11;;;;;;;105.55;36.45;;;;;;;8.05;68.26;103514.09;5123073;28;20853;-42
2021/12/16 04:08:43;;;;;;;80.85;30.95;;;;;;;8.04;68.31;103516.78;5124438;28;20904;-45
2021/12/16 04:11:23;;;;;;;87.75;33.63;;;;;;;7.99;68.25;103519.63;5123817;28;20430;-44
2021/12/16 04:13:59;;;;;;;129.98;41.55;;;;;;;7.98;68.38;103522.31;5125088;28;20519;-44
2021/12/16 04:16:38;;;;;;;134.82;42.88;;;;;;;7.98;68.32;103525.78;5122387;28;20455;-43
2021/12/16 04:19:13;;;;;;;111.07;38.35;;;;;;;7.98;68.49;103523.16;5124151;28;21016;-50
2021/12/16 04:21:51;;;;;;;98.18;33.92;;;;;;;7.93;68.32;103524.28;5123884;28;20424;-43
2021/12/16 04:24:24;;;;;;;122.50;40.53;;;;;;;7.93;68.50;103522.53;5124516;28;20939;-41
2021/12/16 04:26:58;;;;;;;115.88;40.65;;;;;;;7.93;68.47;103524.28;5119710;28;20907;-40
2021/12/16 04:29:32;;;;;;;115.07;39.53;;;;;;;7.94;68.38;103520.75;5124989;28;20785;-42
2021/12/16 04:32:06;;;;;;;109.03;40.20;;;;;;;7.92;68.44;103519.94;5124542;28;20437;-42
2021/12/16 04:34:39;;;;;;;103.70;38.72;;;;;;;7.90;68.48;103519.16;5123267;28;20516;-43
2021/12/16 04:37:12;;;;;;;123.38;41.33;;;;;;;7.90;68.53;103521.78;5122591;28;20443;-44
2021/12/16 04:39:47;;;;;;;136.13;45.72;;;;;;;7.90;68.48;103529.69;5124515;28;20540;-41
2021/12/16 04:42:25;;;;;;;152.68;48.88;;;;;;;7.93;68.53;103540.06;5123273;28;20420;-43
2021/12/16 04:44:58;;;;;;;150.85;48.22;;;;;;;7.94;68.56;103537.38;5119471;28;20934;-44
2021/12/16 04:47:31;;;;;;;142.68;47.85;;;;;;;7.97;68.36;103542.53;5124802;28;20436;-43
2021/12/16 04:50:05;;;;;;;127.50;40.30;;;;;;;7.89;68.56;103527.97;5122882;28;20792;-43
2021/12/16 04:52:39;;;;;;;110.82;37.83;;;;;;;7.92;68.49;103535.75;5124086;28;20909;-42
2021/12/16 04:55:14;;;;;;;118.50;42.13;;;;;;;7.89;68.55;103541.13;5123725;28;20436;-43
2021/12/16 04:57:47;;;;;;;143.37;46.13;;;;;;;7.90;68.57;103548.97;5124018;28;20546;-41
2021/12/16 05:00:23;;;;;;;142.02;45.70;;;;;;;7.82;68.60;103538.75;5125694;28;20420;-43
2021/12/16 05:02:56;;;;;;;118.28;41.30;;;;;;;7.88;68.48;103545.53;5119245;28;20724;-47
2021/12/16 05:05:29;;;;;;;113.23;40.93;;;;;;;7.67;68.50;103528.88;5123442;28;20564;-43
2021/12/16 05:08:01;;;;;;;129.77;45.17;;;;;;;7.86;68.48;103550.84;5123488;28;20853;-42
2021/12/16 05:10:34;;;;;;;135.80;44.72;;;;;;;7.87;68.56;103557.00;5120918;28;20927;-45
2021/12/16 05:13:07;;;;;;;132.75;43.67;;;;;;;7.86;68.68;103556.13;5122629;28;20530;-43
2021/12/16 05:15:42;;;;;;;160.15;51.53;;;;;;;7.80;68.61;103538.00;5123165;28;20567;-43
2021/12/16 05:18:21;;;;;;;162.50;50.83;;;;;;;7.90;68.56;103550.72;5123543;28;20821;-43
2021/12/16 05:20:55;;;;;;;143.93;45.47;;;;;;;7.89;68.64;103543.75;5122977;28;20814;-43
2021/12/16 05:26:20;;;;;;;127.20;45.73;;;;;;;7.80;68.67;103542.38;5123064;28;20440;-42
2021/12/16 05:28:58;;;;;;;139.43;46.78;;;;;;;7.86;68.73;103564.00;5123019;28;20530;-42
2021/12/16 05:31:32;;;;;;;136.57;45.63;;;;;;;7.86;68.72;103569.28;5119062;28;20414;-44
2021/12/16 05:34:06;;;;;;;152.85;49.17;;;;;;;7.88;68.59;103573.63;5124617;28;20924;-44
2021/12/16 05:36:40;;;;;;;133.18;44.33;;;;;;;7.86;68.60;103561.38;5121802;28;20430;-41
2021/12/16 05:39:15;;;;;;;112.60;39.23;;;;;;;7.80;68.60;103572.19;5122956;28;20906;-42
2021/12/16 05:41:49;;;;;;;125.43;40.25;;;;;;;7.79;68.67;103585.41;5123091;28;20407;-45
2021/12/16 05:44:22;;;;;;;124.88;41.25;;;;;;;7.76;68.74;103578.47;5122835;28;20433;-41
2021/12/16 05:46:56;;;;;;;117.07;41.45;;;;;;;7.74;68.81;103567.19;5123801;28;20527;-42
2021/12/16 05:49:28;;;;;;;106.00;42.65;;;;;;;7.72;68.78;103566.38;5119404;28;20518;-42
2021/12/16 05:52:01;;;;;;;137.35;46.50;;;;;;;7.68;68.86;103569.19;5123787;28;20431;-43
2021/12/16 05:54:34;;;;;;;141.13;46.80;;;;;;;7.74;68.82;103572.44;5122491;28;21114;-42
2021/12/16 05:57:07;;;;;;;151.00;48.50;;;;;;;7.76;68.87;103570.59;5120916;28;20428;-45
2021/12/16 05:59:39;;;;;;;138.85;44.75;;;;;;;7.75;68.71;103575.94;5122476;28;20519;-43
2021/12/16 06:02:13;;;;;;;136.05;46.63;;;;;;;7.75;68.80;103584.69;5123049;28;20441;-42
2021/12/16 06:04:45;;;;;;;141.95;45.80;;;;;;;7.69;68.78;103557.78;5123402;28;20845;-42
2021/12/16 06:07:18;;;;;;;161.48;50.30;;;;;;;7.79;68.72;103580.13;5120444;28;20482;-42
2021/12/16 06:09:51;;;;;;;173.65;53.45;;;;;;;7.81;68.69;103581.78;5123692;28;20428;-43
2021/12/16 06:12:24;;;;;;;161.48;51.53;;;;;;;7.85;68.86;103590.41;5120973;28;20434;-41
2021/12/16 06:15:14;;;;;;;156.55;49.55;;;;;;;7.86;68.67;103598.22;5118805;28;20432;-47
2021/12/16 06:26:32;;;;;;;117.15;38.13;;;;;;;7.69;68.97;103605.13;5123423;28;20432;-44
2021/12/16 06:29:04;;;;;;;136.40;41.30;;;;;;;7.60;68.92;103595.84;5122243;28;20832;-42
2021/12/16 06:31:37;;;;;;;131.52;42.42;;;;;;;7.68;68.92;103603.38;5124365;28;20439;-42
2021/12/16 06:34:12;;;;;;;117.10;40.38;;;;;;;7.68;68.91;103617.44;5124808;28;20438;-44
2021/12/16 06:36:44;;;;;;;122.38;40.70;;;;;;;7.67;68.92;103612.22;5125749;28;20420;-43
2021/12/16 06:39:17;;;;;;;106.67;35.73;;;;;;;7.65;68.91;103627.19;5127177;28;20416;-42
2021/12/16 06:41:49;;;;;;;112.80;38.88;;;;;;;7.63;68.78;103632.53;5123585;28;20769;-41
2021/12/16 06:44:26;;;;;;;120.32;39.53;;;;;;;7.61;68.87;103627.31;5128639;28;20756;-42
2021/12/16 06:47:03;;;;;;;128.02;42.00;;;;;;;7.63;68.87;103635.16;5122127;28;20543;-42
2021/12/16 06:49:40;;;;;;;126.55;44.40;;;;;;;7.64;68.88;103631.59;5124976;28;20482;-42
2021/12/16 06:52:16;;;;;;;109.95;37.45;;;;;;;7.60;68.84;103622.13;5125018;28;20506;-43
2021/12/16 06:55:03;;;;;;;104.88;35.95;;;;;;;7.58;68.98;103629.22;5124007;28;20796;-42
2021/12/16 06:57:54;;;;;;;120.25;38.53;;;;;;;7.57;68.94;103645.94;5119791;28;20432;-43
2021/12/16 07:00:33;;;;;;;118.97;40.30;;;;;;;7.55;68.82;103655.63;5118922;28;20408;-47
2021/12/16 07:03:16;;;;;;;114.13;38.20;;;;;;;7.55;69.02;103655.63;5121399;28;20863;-43
2021/12/16 07:05:56;;;;;;;117.03;40.42;;;;;;;7.45;69.10;103646.41;5121965;28;20428;-46
2021/12/16 07:08:28;;;;;;;134.60;42.50;;;;;;;7.27;68.91;103629.56;5121643;28;20426;-43
2021/12/16 07:11:00;;;;;;;114.95;38.97;;;;;;;7.53;69.02;103674.13;5124758;28;20431;-46
2021/12/16 07:13:37;;;;;;;102.13;36.28;;;;;;;7.52;68.93;103661.88;5127222;28;20444;-43
2021/12/16 07:16:13;;;;;;;115.13;39.72;;;;;;;7.50;68.98;103673.38;5126156;28;20555;-43
2021/12/16 07:18:46;;;;;;;123.10;43.67;;;;;;;7.49;69.12;103687.44;5125756;28;20427;-42
2021/12/16 07:21:19;;;;;;;121.65;42.75;;;;;;;7.50;69.15;103689.16;5125499;28;20430;-43
2021/12/16 07:23:53;;;;;;;112.45;39.47;;;;;;;7.47;69.11;103686.66;5125607;28;20432;-45
2021/12/16 07:26:26;;;;;;;109.85;39.40;;;;;;;7.43;69.11;103690.31;5124716;28;20428;-42
2021/12/16 07:28:58;;;;;;;111.95;40.28;;;;;;;7.37;69.08;103684.38;5125166;28;20455;-42
2021/12/16 07:31:31;;;;;;;120.32;40.10;;;;;;;7.41;69.02;103689.53;5124357;28;20432;-42
2021/12/16 07:34:04;;;;;;;136.57;42.08;;;;;;;7.42;68.95;103693.84;5126178;28;20438;-42
2021/12/16 07:36:41;;;;;;;127.28;42.63;;;;;;;7.40;69.09;103693.91;5124364;28;20524;-41
2021/12/16 07:39:26;;;;;;;146.43;45.47;;;;;;;7.41;69.16;103698.25;5125476;28;20579;-42
2021/12/16 07:41:59;;;;;;;125.85;41.53;;;;;;;7.43;69.20;103706.94;5121439;28;20470;-42
2021/12/16 07:44:32;;;;;;;124.88;42.80;;;;;;;7.42;69.11;103712.25;5124569;28;20504;-43
2021/12/16 07:47:09;;;;;;;121.15;42.67;;;;;;;7.39;69.11;103711.47;5124983;28;21264;-44
2021/12/16 07:49:44;;;;;;;132.57;44.10;;;;;;;7.44;69.01;103721.81;5122704;28;20808;-42
2021/12/16 07:52:23;;;;;;;124.00;42.15;;;;;;;7.36;69.17;103719.47;5124163;28;20948;-44
2021/12/16 07:54:55;;;;;;;127.47;43.10;;;;;;;7.42;69.13;103728.91;5124720;28;20955;-44
2021/12/16 07:57:28;;;;;;;118.80;41.78;;;;;;;7.34;69.15;103723.94;5121959;28;20440;-42
2021/12/16 08:00:00;;;;;;;137.52;44.08;;;;;;;7.42;69.15;103735.94;5124453;28;20427;-44
2021/12/16 08:02:32;;;;;;;116.82;41.03;;;;;;;7.41;69.08;103742.13;5125672;28;20442;-41
2021/12/16 08:05:07;;;;;;;122.57;45.25;;;;;;;7.41;69.07;103737.72;5127168;28;20436;-41
2021/12/16 08:07:41;;;;;;;148.90;52.20;;;;;;;7.48;69.11;103746.22;5127930;28;20807;-42
2021/12/16 08:10:17;;;;;;;129.20;45.22;;;;;;;7.41;69.10;103732.44;5127993;28;20928;-42
2021/12/16 08:12:50;;;;;;;113.00;44.08;;;;;;;7.48;69.17;103751.47;5125668;28;20942;-42
2021/12/16 08:15:23;;;;;;;117.53;43.25;;;;;;;7.49;69.12;103750.56;5124333;28;20907;-42
2021/12/16 08:17:56;;;;;;;120.53;43.85;;;;;;;7.40;69.22;103735.97;5121403;28;20428;-41
2021/12/16 08:20:29;;;;;;;136.27;47.20;;;;;;;7.44;68.97;103739.38;5125021;28;20439;-43
2021/12/16 08:23:03;;;;;;;126.05;46.25;;;;;;;7.53;69.03;103754.81;5125991;28;20531;-44
2021/12/16 08:25:37;;;;;;;143.48;45.97;;;;;;;7.55;69.12;103759.06;5124988;28;20426;-43
2021/12/16 08:28:10;;;;;;;145.80;48.40;;;;;;;7.57;69.08;103764.28;5125211;28;20796;-42
2021/12/16 08:30:48;;;;;;;143.20;50.05;;;;;;;7.65;68.96;103770.13;5123378;28;20464;-42
2021/12/16 08:33:22;;;;;;;155.15;51.15;;;;;;;7.71;69.16;103776.88;5126594;28;20793;-42
2021/12/16 08:35:56;;;;;;;148.18;48.03;;;;;;;7.75;69.09;103779.34;5125520;28;20514;-42
2021/12/16 08:38:30;;;;;;;149.23;51.67;;;;;;;7.78;69.07;103773.97;5118425;28;21150;-47
2021/12/16 08:41:13;;;;;;;137.00;49.00;;;;;;;7.85;68.97;103775.44;5122919;28;20432;-43
2021/12/16 08:43:46;;;;;;;153.85;51.50;;;;;;;7.90;69.02;103784.91;5123454;28;20492;-41
2021/12/16 08:46:22;;;;;;;161.90;52.80;;;;;;;7.98;69.11;103785.50;5126013;28;20972;-42
2021/12/16 08:48:55;;;;;;;163.18;52.63;;;;;;;8.04;69.08;103779.97;5123150;28;20442;-41
2021/12/16 08:51:36;;;;;;;126.82;44.65;;;;;;;8.09;69.07;103784.16;5120720;28;21114;-43
2021/12/16 08:54:10;;;;;;;126.30;42.08;;;;;;;7.81;68.97;103734.38;5124592;28;20428;-42
2021/12/16 08:56:43;;;;;;;120.22;42.40;;;;;;;8.16;69.13;103797.91;5123567;28;20432;-42
2021/12/16 08:59:17;;;;;;;135.10;46.38;;;;;;;8.24;69.07;103797.63;5121419;28;20472;-43
2021/12/16 09:01:53;;;;;;;160.88;52.58;;;;;;;8.34;69.01;103803.38;5122471;28;20888;-45
2021/12/16 09:04:27;;;;;;;164.65;57.47;;;;;;;8.42;69.11;103796.88;5117087;28;20450;-43
2021/12/16 09:07:03;;;;;;;163.52;57.85;;;;;;;8.51;69.03;103799.13;5118769;28;20444;-43
2021/12/16 09:09:39;;;;;;;172.60;58.45;;;;;;;8.60;69.05;103800.53;5120999;28;20424;-45
2021/12/16 09:12:38;;;;;;;167.27;60.72;;;;;;;8.71;68.86;103808.00;5121596;28;20437;-42
2021/12/16 09:15:12;;;;;;;171.40;59.58;;;;;;;8.80;69.00;103806.75;5120739;28;20413;-43
2021/12/16 09:17:44;;;;;;;183.77;63.20;;;;;;;8.88;69.06;103810.75;5122912;28;20428;-44
2021/12/16 09:20:17;;;;;;;157.40;55.93;;;;;;;8.97;69.10;103809.50;5119898;28;20553;-44
2021/12/16 09:22:50;;;;;;;152.65;51.70;;;;;;;8.73;69.00;103758.72;5118631;28;20455;-43
2021/12/16 09:25:25;;;;;;;161.95;53.05;;;;;;;9.13;69.12;103820.25;5120201;28;20437;-42
2021/12/16 09:27:57;;;;;;;153.50;54.40;;;;;;;9.22;69.04;103823.31;5118939;28;20455;-48
2021/12/16 09:30:31;;;;;;;155.77;53.90;;;;;;;9.31;69.08;103829.13;5121330;28;20439;-44
2021/12/16 09:33:13;;;;;;;157.90;56.67;;;;;;;9.20;69.06;103790.91;5117726;28;20454;-43
2021/12/16 09:35:50;;;;;;;143.02;50.45;;;;;;;9.47;69.05;103822.22;5120713;28;20436;-44
2021/12/16 09:38:23;;;;;;;137.73;50.70;;;;;;;9.50;68.97;103802.78;5120612;28;20426;-44
2021/12/16 09:40:58;;;;;;;131.45;46.38;;;;;;;9.61;68.99;103811.91;5120750;28;20431;-43
2021/12/16 09:43:35;;;;;;;140.18;50.33;;;;;;;9.68;69.09;103812.50;5118803;28;20441;-43
2021/12/16 09:46:12;;;;;;;143.95;53.78;;;;;;;9.78;69.06;103818.19;5122459;28;21015;-43
2021/12/16 09:48:46;;;;;;;130.57;50.03;;;;;;;9.87;69.02;103823.88;5121268;28;20440;-44
2021/12/16 09:51:24;;;;;;;100.40;43.10;;;;;;;9.93;69.00;103807.75;5120290;28;20902;-43
2021/12/16 09:54:02;;;;;;;109.45;41.15;;;;;;;10.01;69.09;103809.19;5116771;28;20420;-42
2021/12/16 09:56:40;;;;;;;118.45;47.25;;;;;;;9.99;68.96;103809.25;5120937;28;20442;-47
2021/12/16 09:59:16;;;;;;;113.22;44.95;;;;;;;10.16;69.02;103825.16;5122695;28;20656;-44
2021/12/16 10:01:52;;;;;;;130.50;44.90;;;;;;;9.99;68.99;103785.50;5119364;28;20782;-45
2021/12/16 10:04:31;;;;;;;109.00;42.57;;;;;;;10.30;69.01;103821.03;5122972;28;20424;-44
2021/12/16 10:07:11;;;;;;;112.97;43.45;;;;;;;10.35;69.00;103813.75;5123641;28;20413;-45
2021/12/16 10:09:44;;;;;;;118.85;43.55;;;;;;;10.40;69.05;103819.63;5125019;28;20521;-43
2021/12/16 10:12:25;;;;;;;102.65;39.67;;;;;;;10.50;69.07;103812.97;5124139;28;20547;-47
2021/12/16 10:15:06;;;;;;;114.55;44.40;;;;;;;10.57;69.10;103824.94;5119576;28;20443;-46
2021/12/16 10:17:41;;;;;;;106.05;42.22;;;;;;;10.66;69.04;103826.28;5119838;28;20837;-42
2021/12/16 10:20:19;;;;;;;92.05;40.63;;;;;;;10.73;69.11;103825.03;5119622;28;20587;-44
2021/12/16 10:23:00;;;;;;;81.53;35.55;;;;;;;10.77;69.00;103820.44;5117894;28;20422;-46
2021/12/16 10:25:38;;;;;;;84.50;37.08;;;;;;;10.88;69.04;103833.97;5114850;28;20883;-45
2021/12/16 10:28:23;;;;;;;72.00;34.80;;;;;;;10.97;69.16;103837.94;5120657;28;20472;-44
2021/12/16 10:31:02;;;;;;;84.22;34.95;;;;;;;11.03;69.03;103827.91;5118858;28;20420;-46
2021/12/16 10:33:38;;;;;;;77.65;32.75;;;;;;;11.11;69.11;103837.22;5116458;28;20919;-44
2021/12/16 10:36:15;;;;;;;83.43;33.30;;;;;;;11.03;69.22;103805.91;5119891;28;20413;-43
2021/12/16 10:38:52;;;;;;;84.50;34.45;;;;;;;11.20;69.03;103823.50;5116969;28;20511;-43
2021/12/16 10:42:18;;;;;;;77.15;35.90;;;;;;;11.29;69.17;103833.59;5119168;28;20894;-43
2021/12/16 10:44:51;;;;;;;72.13;33.17;;;;;;;11.33;69.18;103829.84;5127082;28;20446;-44
2021/12/16 10:47:24;;;;;;;84.82;36.05;;;;;;;11.34;69.21;103823.66;5123613;28;20430;-44
2021/12/16 10:49:56;;;;;;;73.68;33.67;;;;;;;11.39;69.25;103828.69;5126860;28;20437;-44
2021/12/16 10:52:31;;;;;;;68.28;33.05;;;;;;;11.35;69.53;103817.41;5121798;28;20428;-44
2021/12/16 10:55:05;;;;;;;80.70;32.37;;;;;;;11.48;69.36;103833.47;5125455;28;20426;-45
2021/12/16 10:57:37;;;;;;;63.73;30.10;;;;;;;11.50;69.39;103836.91;5125164;28;20416;-44
2021/12/16 11:00:16;;;;;;;79.35;32.15;;;;;;;11.56;69.32;103835.72;5127557;28;20432;-44
2021/12/16 11:02:48;;;;;;;60.03;29.20;;;;;;;11.63;69.56;103832.66;5125462;28;20497;-44
2021/12/16 11:05:27;;;;;;;63.92;29.30;;;;;;;11.67;69.26;103839.47;5123987;28;20788;-44
2021/12/16 11:07:59;;;;;;;63.22;27.23;;;;;;;11.74;69.35;103845.31;5119337;28;20515;-43
2021/12/16 11:10:34;;;;;;;53.92;26.70;;;;;;;11.80;69.31;103839.69;5122790;28;20456;-43
2021/12/16 11:13:09;;;;;;;54.80;25.38;;;;;;;11.85;69.31;103842.09;5124869;28;20449;-45
2021/12/16 11:15:48;;;;;;;56.25;25.50;;;;;;;11.88;69.36;103842.78;5129377;28;20440;-45
2021/12/16 11:18:22;;;;;;;61.63;26.95;;;;;;;11.92;69.38;103841.69;5128044;28;20432;-44
2021/12/16 11:20:58;;;;;;;45.60;23.83;;;;;;;11.97;69.35;103839.63;5130322;28;20487;-45
2021/12/16 11:23:34;;;;;;;57.20;25.55;;;;;;;11.93;69.37;103824.84;5127308;28;20901;-44
2021/12/16 11:26:11;;;;;;;50.47;23.65;;;;;;;12.06;69.35;103845.38;5127433;28;20769;-44
2021/12/16 11:28:46;;;;;;;54.42;23.73;;;;;;;12.07;69.38;103836.47;5128282;28;20514;-45
2021/12/16 11:31:23;;;;;;;58.57;24.97;;;;;;;12.09;69.42;103839.91;5128054;28;20543;-43
2021/12/16 11:34:03;;;;;;;53.95;25.40;;;;;;;12.13;69.43;103841.41;5133351;28;20420;-48
2021/12/16 11:36:38;;;;;;;50.33;24.80;;;;;;;12.14;69.49;103832.53;5128072;28;20420;-45
2021/12/16 11:39:15;;;;;;;57.47;25.20;;;;;;;12.15;69.58;103834.25;5128694;28;20514;-42
2021/12/16 11:41:51;;;;;;;57.38;25.23;;;;;;;12.15;69.55;103845.69;5140038;28;20450;-43
2021/12/16 11:44:28;;;;;;;46.38;23.30;;;;;;;12.12;69.76;103835.28;5130093;28;20427;-44
2021/12/16 11:47:07;;;;;;;53.07;25.43;;;;;;;12.12;69.59;103829.97;5133583;28;20427;-45
2021/12/16 11:49:43;;;;;;;57.83;27.17;;;;;;;12.13;69.73;103829.03;5125875;28;20510;-45
2021/12/16 11:52:19;;;;;;;54.40;26.38;;;;;;;12.17;69.65;103827.03;5129517;28;20426;-43
2021/12/16 11:54:55;;;;;;;45.70;24.65;;;;;;;12.18;69.68;103832.28;5130085;28;20425;-45
2021/12/16 11:57:31;;;;;;;57.50;23.50;;;;;;;12.20;69.82;103843.66;5122956;28;20435;-43
2021/12/16 12:00:10;;;;;;;49.45;23.73;;;;;;;12.18;69.73;103834.06;5128795;28;20420;-42
2021/12/16 12:02:47;;;;;;;49.80;23.60;;;;;;;12.15;69.80;103827.16;5126524;28;20605;-43
2021/12/16 12:05:24;;;;;;;50.58;22.50;;;;;;;12.13;69.80;103830.81;5127610;28;20420;-44
2021/12/16 12:08:01;;;;;;;61.13;24.52;;;;;;;12.10;69.95;103831.00;5127649;28;20432;-44
2021/12/16 12:10:42;;;;;;;49.70;23.58;;;;;;;12.08;69.97;103822.28;5126490;28;20456;-44
2021/12/16 12:13:18;;;;;;;54.25;23.38;;;;;;;12.06;69.98;103819.72;5125225;28;20908;-44
2021/12/16 12:16:04;;;;;;;50.28;23.98;;;;;;;12.05;69.86;103827.75;5129248;28;20902;-44
2021/12/16 12:18:43;;;;;;;54.55;23.48;;;;;;;12.02;70.03;103822.66;5124358;28;20408;-44
2021/12/16 12:21:29;;;;;;;52.50;23.95;;;;;;;12.00;70.14;103831.50;5129315;28;20446;-42
2021/12/16 12:24:09;;;;;;;55.60;23.52;;;;;;;11.77;69.93;103797.50;5125243;28;20542;-44
2021/12/16 12:26:48;;;;;;;58.63;24.02;;;;;;;11.51;69.89;103753.91;5126726;28;20789;-44
2021/12/16 12:29:27;;;;;;;51.42;24.00;;;;;;;11.97;69.96;103829.03;5128607;28;20428;-43
2021/12/16 12:32:05;;;;;;;56.72;24.65;;;;;;;12.00;70.08;103826.22;5124137;28;20427;-43
2021/12/16 12:34:43;;;;;;;56.78;24.38;;;;;;;12.03;69.98;103834.94;5126149;28;20474;-44
2021/12/16 12:37:20;;;;;;;53.97;24.48;;;;;;;12.06;70.10;103830.31;5127728;28;20439;-44
2021/12/16 12:39:58;;;;;;;42.10;22.95;;;;;;;12.09;69.90;103824.00;5127246;28;20797;-43
2021/12/16 12:42:31;;;;;;;53.35;22.70;;;;;;;12.11;70.15;103822.09;5125217;28;20444;-44
2021/12/16 12:45:05;;;;;;;49.35;22.70;;;;;;;12.14;70.03;103821.91;5128758;28;20428;-45
2021/12/16 12:47:41;;;;;;;46.70;23.05;;;;;;;12.15;70.15;103827.16;5126577;28;20440;-43
2021/12/16 12:50:19;;;;;;;58.53;24.25;;;;;;;12.18;70.14;103824.31;5128233;28;20420;-43
2021/12/16 12:52:53;;;;;;;50.15;25.02;;;;;;;12.22;70.13;103825.84;5128158;28;20502;-43
2021/12/16 12:55:31;;;;;;;47.00;23.83;;;;;;;12.27;70.01;103828.25;5126973;28;20432;-43
2021/12/16 12:58:08;;;;;;;51.20;23.77;;;;;;;12.28;70.04;103824.66;5118531;28;20424;-43
2021/12/16 13:00:46;;;;;;;57.88;24.13;;;;;;;12.30;70.14;103828.06;5124854;28;20448;-46
2021/12/16 13:03:29;;;;;;;54.80;24.00;;;;;;;12.27;70.04;103817.66;5121106;28;20496;-43
2021/12/16 13:06:06;;;;;;;47.42;23.58;;;;;;;12.37;70.10;103833.88;5124922;28;20418;-44
2021/12/16 13:08:43;;;;;;;52.53;23.15;;;;;;;12.42;69.98;103827.38;5126855;28;20811;-46
2021/12/16 13:11:25;;;;;;;46.05;23.48;;;;;;;12.37;69.95;103824.13;5127330;28;20788;-44
2021/12/16 13:14:07;;;;;;;45.72;23.60;;;;;;;12.48;70.00;103841.19;5125035;28;20410;-53
2021/12/16 13:17:02;;;;;;;53.72;23.45;;;;;;;12.50;69.92;103828.72;5125932;28;20435;-48
2021/12/16 13:28:39;;;;;;;44.17;22.38;;;;;;;12.54;69.88;103848.78;5126288;28;20499;-45
2021/12/16 13:31:35;;;;;;;49.33;22.88;;;;;;;12.52;69.83;103848.06;5124234;28;20496;-45
2021/12/16 13:34:34;;;;;;;43.95;22.38;;;;;;;12.54;69.81;103851.44;5125887;28;20448;-44
2021/12/16 13:37:19;;;;;;;40.58;21.63;;;;;;;12.59;69.79;103858.19;5121997;28;20435;-43